createdAt,value
2023-01-23T00:03:52.015Z,0.87
2023-01-23T00:09:00.812Z,0.89
2023-01-23T00:14:07.716Z,0.83
2023-01-23T00:19:14.408Z,0.88
2023-01-23T00:24:22.481Z,0.86
2023-01-23T00:29:29.407Z,0.85
2023-01-23T00:34:36.412Z,0.89
2023-01-23T00:39:46.351Z,0.85
2023-01-23T00:44:53.050Z,0.81
2023-01-23T00:50:00.967Z,0.86
2023-01-23T00:55:12.013Z,0.81
2023-01-23T01:00:20.860Z,0.85
2023-01-23T01:05:28.161Z,0.82
2023-01-23T01:10:38.327Z,0.83
2023-01-23T01:15:45.019Z,0.82
2023-01-23T01:20:52.081Z,0.80
2023-01-23T01:26:03.743Z,0.85
2023-01-23T01:31:13.452Z,0.88
2023-01-23T01:36:24.324Z,0.84
2023-01-23T01:41:34.589Z,0.86
2023-01-23T01:46:41.070Z,0.84
2023-01-23T01:51:53.122Z,0.85
2023-01-23T01:57:20.565Z,0.86
2023-01-23T02:02:31.389Z,0.85
2023-01-23T02:07:43.362Z,0.81
2023-01-23T02:12:54.224Z,0.82
2023-01-23T02:18:00.816Z,0.79
2023-01-23T02:23:37.057Z,0.81
2023-01-23T02:28:48.055Z,0.77
2023-01-23T02:34:01.005Z,0.79
2023-01-23T02:39:11.031Z,0.75
2023-01-23T02:44:26.838Z,0.78
2023-01-23T02:49:37.472Z,0.75
2023-01-23T02:54:45.277Z,0.76
2023-01-23T03:00:11.577Z,0.79
2023-01-23T03:05:19.330Z,0.73
2023-01-23T03:10:25.806Z,0.65
2023-01-23T03:15:33.654Z,0.67
2023-01-23T03:20:42.959Z,0.70
2023-01-23T03:25:58.792Z,0.67
2023-01-23T03:31:10.384Z,0.70
2023-01-23T03:36:16.671Z,0.66
2023-01-23T03:41:28.744Z,0.59
2023-01-23T03:46:41.898Z,0.64
2023-01-23T03:51:48.246Z,0.61
2023-01-23T03:56:56.288Z,0.66
2023-01-23T04:02:24.929Z,0.65
2023-01-23T04:07:31.912Z,0.62
2023-01-23T04:12:39.354Z,0.56
2023-01-23T04:17:48.656Z,0.60
2023-01-23T04:22:55.365Z,0.63
2023-01-23T04:28:02.682Z,0.67
2023-01-23T04:33:10.891Z,0.64
2023-01-23T04:38:18.497Z,0.66
2023-01-23T04:43:26.162Z,0.67
2023-01-23T04:48:35.431Z,0.67
2023-01-23T04:53:41.923Z,0.69
2023-01-23T04:58:50.278Z,0.64
2023-01-23T05:04:00.497Z,0.64
2023-01-23T05:09:07.661Z,0.64
2023-01-23T05:14:28.424Z,0.58
2023-01-23T05:19:36.281Z,0.54
2023-01-23T05:24:48.833Z,0.56
2023-01-23T05:29:56.105Z,0.57
2023-01-23T05:35:08.204Z,0.57
2023-01-23T05:40:18.830Z,0.53
2023-01-23T05:45:57.046Z,0.55
2023-01-23T05:51:14.371Z,0.52
2023-01-23T05:56:21.477Z,0.55
2023-01-23T06:01:55.202Z,0.55
2023-01-23T06:07:23.305Z,0.55
2023-01-23T06:12:35.467Z,0.55
2023-01-23T06:17:42.436Z,0.54
2023-01-23T06:22:50.959Z,0.55
2023-01-23T06:27:58.083Z,0.57
2023-01-23T06:33:07.845Z,0.57
2023-01-23T06:38:21.281Z,0.61
2023-01-23T06:43:30.529Z,0.60
2023-01-23T06:48:36.997Z,0.62
2023-01-23T06:53:45.220Z,0.64
2023-01-23T06:58:52.238Z,0.60
2023-01-23T07:04:11.578Z,0.60
2023-01-23T07:09:21.466Z,0.53
2023-01-23T07:14:41.207Z,0.57
2023-01-23T07:19:53.133Z,0.61
2023-01-23T07:25:01.255Z,0.62
2023-01-23T07:30:10.322Z,0.60
2023-01-23T07:35:17.005Z,0.61
2023-01-23T07:40:25.369Z,0.66
2023-01-23T07:45:31.773Z,0.71
2023-01-23T07:50:38.414Z,0.70
2023-01-23T07:55:46.165Z,0.74
2023-01-23T08:00:52.696Z,0.73
2023-01-23T08:06:00.135Z,0.78
2023-01-23T08:11:10.583Z,0.71
2023-01-23T08:16:17.358Z,0.71
2023-01-23T08:21:24.435Z,0.67
2023-01-23T08:26:33.737Z,0.71
2023-01-23T08:31:41.159Z,0.73
2023-01-23T08:36:47.679Z,0.74
2023-01-23T08:41:55.519Z,0.78
2023-01-23T08:47:03.770Z,0.72
2023-01-23T08:52:10.231Z,0.71
2023-01-23T08:57:18.298Z,0.74
2023-01-23T09:02:25.024Z,0.83
2023-01-23T09:07:31.818Z,0.87
2023-01-23T09:12:39.685Z,0.91
2023-01-23T09:17:46.176Z,0.88
2023-01-23T09:22:53.111Z,0.86
2023-01-23T09:28:00.971Z,0.89
2023-01-23T09:33:07.400Z,0.91
2023-01-23T09:38:13.609Z,0.91
2023-01-23T09:43:30.766Z,0.91
2023-01-23T09:48:46.512Z,0.93
2023-01-23T09:53:54.286Z,0.88
2023-01-23T09:59:16.251Z,0.85
2023-01-23T10:04:23.905Z,0.90
2023-01-23T10:10:00.621Z,0.88
2023-01-23T10:15:29.628Z,0.91
2023-01-23T10:21:04.431Z,0.93
2023-01-23T10:26:20.741Z,0.90
2023-01-23T10:31:39.226Z,0.95
2023-01-23T10:37:04.233Z,1.05
2023-01-23T10:42:14.630Z,1.07
2023-01-23T10:47:38.808Z,1.05
2023-01-23T10:52:48.388Z,1.00
2023-01-23T10:57:57.797Z,1.08
2023-01-23T11:03:34.840Z,1.03
2023-01-23T11:08:51.880Z,1.08
2023-01-23T11:14:23.800Z,1.12
2023-01-23T11:19:34.689Z,1.08
2023-01-23T11:24:41.874Z,1.07
2023-01-23T11:30:24.451Z,1.14
2023-01-23T11:36:01.966Z,1.18
2023-01-23T11:41:12.737Z,1.10
2023-01-23T11:46:39.626Z,1.11
2023-01-23T11:51:58.695Z,1.17
2023-01-23T11:57:11.285Z,1.11
2023-01-23T12:03:01.373Z,1.16
2023-01-23T12:08:26.332Z,1.17
2023-01-23T12:13:58.559Z,1.19
2023-01-23T12:19:20.641Z,1.24
2023-01-23T12:24:52.147Z,1.28
2023-01-23T12:30:22.508Z,1.25
2023-01-23T12:35:38.621Z,1.31
2023-01-23T12:40:52.376Z,1.30
2023-01-23T12:46:06.184Z,1.32
2023-01-23T12:51:20.356Z,1.33
2023-01-23T12:56:33.066Z,1.28
2023-01-23T13:02:01.014Z,1.31
2023-01-23T13:07:28.275Z,1.31
2023-01-23T13:12:36.996Z,1.37
2023-01-23T13:17:49.353Z,1.31
2023-01-23T13:22:55.576Z,1.34
2023-01-23T13:28:44.696Z,1.31
2023-01-23T13:33:55.329Z,1.29
2023-01-23T13:39:28.663Z,1.32
2023-01-23T13:44:41.812Z,1.30
2023-01-23T14:23:58.728Z,1.30
2023-01-23T14:29:20.410Z,1.27
2023-01-23T14:34:29.323Z,1.29
2023-01-23T14:39:37.258Z,1.29
2023-01-23T14:44:47.606Z,1.30
2023-01-23T14:49:57.343Z,1.32
2023-01-23T14:55:08.135Z,1.29
2023-01-23T15:00:19.586Z,1.28
2023-01-23T15:05:29.517Z,1.27
2023-01-23T15:10:48.192Z,1.25
2023-01-23T15:15:58.849Z,1.23
2023-01-23T15:21:08.671Z,1.22
2023-01-23T15:26:28.012Z,1.26
2023-01-23T15:31:37.124Z,1.22
2023-01-23T15:36:52.642Z,1.23
2023-01-23T15:42:02.631Z,1.24
2023-01-23T15:47:09.267Z,1.22
2023-01-23T15:52:24.499Z,1.17
2023-01-23T15:57:31.496Z,1.18
2023-01-23T16:02:47.231Z,1.20
2023-01-23T16:08:04.766Z,1.18
2023-01-23T16:13:15.746Z,1.19
2023-01-23T16:18:24.169Z,1.18
2023-01-23T16:23:46.097Z,1.11
2023-01-23T16:28:55.515Z,1.11
2023-01-23T16:34:06.204Z,1.16
2023-01-23T16:39:20.561Z,1.16
2023-01-23T16:44:29.037Z,1.16
2023-01-23T16:49:50.987Z,1.14
2023-01-23T16:55:01.403Z,1.06
2023-01-23T17:00:33.514Z,1.07
2023-01-23T17:05:41.464Z,1.10
2023-01-23T17:10:53.464Z,1.09
2023-01-23T17:16:00.996Z,1.07
2023-01-23T17:21:08.853Z,1.05
2023-01-23T17:26:21.245Z,1.06
2023-01-23T17:31:33.531Z,1.06
2023-01-23T17:36:42.503Z,1.08
2023-01-23T17:41:54.347Z,1.13
2023-01-23T17:47:04.088Z,1.12
2023-01-23T17:52:14.859Z,1.13
2023-01-23T17:57:25.450Z,1.13
2023-01-23T18:02:33.804Z,1.12
2023-01-23T18:07:53.836Z,1.09
2023-01-23T18:13:21.261Z,1.13
2023-01-23T18:18:34.273Z,1.16
2023-01-23T18:23:45.634Z,1.14
2023-01-23T18:29:26.952Z,1.17
2023-01-23T18:34:46.135Z,1.17
2023-01-23T18:40:17.377Z,1.14
2023-01-23T18:45:32.752Z,1.19
2023-01-23T18:50:54.047Z,1.17
2023-01-23T18:56:15.532Z,1.17
2023-01-23T19:01:34.337Z,1.19
2023-01-23T19:06:45.486Z,1.20
2023-01-23T19:12:14.056Z,1.22
2023-01-23T19:17:50.507Z,1.19
2023-01-23T19:23:27.937Z,1.20
2023-01-23T19:28:38.973Z,1.19
2023-01-23T19:33:50.004Z,1.19
2023-01-23T19:39:02.904Z,1.19
2023-01-23T19:44:16.251Z,1.22
2023-01-23T19:49:29.006Z,1.20
2023-01-23T19:54:40.255Z,1.17
2023-01-23T19:59:50.243Z,1.20
2023-01-23T20:05:03.159Z,1.20
2023-01-23T20:10:22.682Z,1.15
2023-01-23T20:15:31.070Z,1.14
2023-01-23T20:20:42.086Z,1.15
2023-01-23T20:26:01.113Z,1.14
2023-01-23T20:31:11.319Z,1.10
2023-01-23T20:36:23.023Z,1.09
2023-01-23T20:41:35.220Z,1.13
2023-01-23T20:46:44.727Z,1.11
2023-01-23T20:51:55.039Z,1.13
2023-01-23T20:57:07.809Z,1.14
2023-01-23T21:02:25.928Z,1.16
2023-01-23T21:07:37.354Z,1.18
2023-01-23T21:12:46.287Z,1.16
2023-01-23T21:17:53.806Z,1.12
2023-01-23T21:23:03.157Z,1.14
2023-01-23T21:28:10.732Z,1.04
2023-01-23T21:33:19.401Z,1.08
2023-01-23T21:38:30.063Z,1.06
2023-01-23T21:43:39.159Z,1.05
2023-01-23T21:48:45.900Z,1.09
2023-01-23T21:53:54.354Z,1.06
2023-01-23T21:59:00.740Z,1.08
2023-01-23T22:04:11.071Z,1.10
2023-01-23T22:09:20.964Z,1.13
2023-01-23T22:14:27.576Z,1.12
2023-01-23T22:19:33.914Z,1.15
2023-01-23T22:24:41.738Z,1.14
2023-01-23T22:29:48.247Z,1.14
2023-01-23T22:34:54.858Z,1.13
2023-01-23T22:40:02.665Z,1.14
2023-01-23T22:45:11.066Z,1.15
2023-01-23T22:50:18.460Z,1.16
2023-01-23T22:55:26.262Z,1.15
2023-01-23T23:00:32.986Z,1.15
2023-01-23T23:05:39.709Z,1.14
2023-01-23T23:10:49.814Z,1.14
2023-01-23T23:15:56.686Z,1.15
2023-01-23T23:21:03.968Z,1.13
2023-01-23T23:26:14.437Z,1.17
2023-01-23T23:31:21.006Z,1.17
2023-01-23T23:36:27.701Z,1.16
2023-01-23T23:41:35.671Z,1.20
2023-01-23T23:46:42.038Z,1.15
2023-01-23T23:51:48.388Z,1.16
2023-01-23T23:56:56.102Z,1.18
